Time;durP1;ratioP1;P1;durP2;ratioP2;P2;SDS_P1;SDS_P2;PMS_P1;PMS_P2;Temp;Humidity;BMP_temperature;BMP_pressure;BME280_temperature;BME280_humidity;BME280_pressure;Samples;Min_cycle;Max_cycle;Signal;HPM_P1;HPM_P2
2023/04/14 00:01:23;;;;;;;6.60;0.68;;;;;;;1.76;53.76;100905.41;5013250;28;20064;-72
2023/04/14 00:03:50;;;;;;;10.48;0.75;;;;;;;1.71;54.33;100900.25;4993477;28;20044;-73
2023/04/14 00:06:16;;;;;;;9.15;1.40;;;;;;;1.75;54.65;100909.66;5023222;28;20022;-78
2023/04/14 00:08:41;;;;;;;2.85;1.05;;;;;;;1.78;54.65;100901.94;4997455;28;20108;-77
2023/04/14 00:11:07;;;;;;;4.82;1.17;;;;;;;1.80;54.28;100897.66;4998987;28;20034;-78
2023/04/14 00:13:32;;;;;;;6.03;1.05;;;;;;;1.82;53.82;100901.09;5004346;28;20858;-76
2023/04/14 00:15:58;;;;;;;8.90;1.23;;;;;;;1.73;53.85;100908.84;5013757;28;20060;-77
2023/04/14 00:18:24;;;;;;;1.55;0.95;;;;;;;1.70;54.49;100903.69;5014900;28;20030;-78
2023/04/14 00:20:49;;;;;;;4.70;1.20;;;;;;;1.81;54.21;100907.06;5003145;28;20684;-77
2023/04/14 00:23:15;;;;;;;2.05;0.70;;;;;;;1.81;53.74;100907.06;5014310;28;20123;-77
2023/04/14 00:25:40;;;;;;;2.05;1.33;;;;;;;1.73;53.77;100906.25;5013588;28;20049;-76
2023/04/14 00:28:06;;;;;;;6.22;1.02;;;;;;;1.65;54.17;100911.41;5012999;28;20025;-75
2023/04/14 00:30:31;;;;;;;9.98;1.75;;;;;;;1.70;54.28;100909.69;5005184;28;20037;-76
2023/04/14 00:32:57;;;;;;;5.93;1.40;;;;;;;1.67;54.15;100908.84;5006514;28;20077;-75
2023/04/14 00:35:23;;;;;;;9.82;1.10;;;;;;;1.59;54.21;100918.31;5010450;28;20041;-73
2023/04/14 00:37:50;;;;;;;6.00;1.15;;;;;;;1.56;54.35;100915.75;5013445;28;20025;-74
2023/04/14 00:40:16;;;;;;;5.95;1.38;;;;;;;1.49;54.64;100926.06;5005740;28;20037;-74
2023/04/14 00:42:45;;;;;;;5.40;0.85;;;;;;;1.48;54.89;100926.03;5012057;28;20656;-75
2023/04/14 00:45:12;;;;;;;5.78;0.82;;;;;;;1.51;55.43;100929.50;4999950;28;20033;-72
2023/04/14 00:47:40;;;;;;;4.90;1.52;;;;;;;1.65;55.42;100946.63;5008831;28;20885;-73
2023/04/14 00:50:09;;;;;;;4.97;1.17;;;;;;;1.70;54.93;100935.44;5010124;28;20067;-73
2023/04/14 00:52:36;;;;;;;10.80;0.80;;;;;;;1.70;54.62;100938.03;5008723;28;20126;-72
2023/04/14 00:55:04;;;;;;;6.50;1.85;;;;;;;1.69;54.69;100943.22;5010862;28;20037;-72
2023/04/14 00:57:29;;;;;;;5.38;1.67;;;;;;;1.66;54.77;100943.19;5006878;28;20029;-76
2023/04/14 00:59:57;;;;;;;7.78;1.40;;;;;;;1.62;55.13;100946.66;5009967;28;20052;-75
2023/04/14 01:02:24;;;;;;;7.25;1.63;;;;;;;1.64;55.53;100943.22;5010841;28;20056;-76
2023/04/14 01:04:50;;;;;;;2.65;1.35;;;;;;;1.77;55.38;100946.59;5012388;28;20037;-76
2023/04/14 01:07:18;;;;;;;3.33;1.55;;;;;;;1.72;55.11;100949.19;5009891;28;20038;-76
2023/04/14 01:09:43;;;;;;;3.97;1.63;;;;;;;1.74;55.34;100951.78;5010999;28;20290;-76
2023/04/14 01:12:21;;;;;;;9.18;1.77;;;;;;;1.83;55.20;100945.75;5008033;28;20037;-76
2023/04/14 01:15:09;;;;;;;11.52;1.83;;;;;;;1.87;55.34;100955.19;5011160;28;20108;-74
2023/04/14 01:17:43;;;;;;;3.35;1.40;;;;;;;1.88;55.42;100965.47;4992552;28;20285;-75
2023/04/14 01:20:21;;;;;;;9.00;1.55;;;;;;;1.87;55.19;100974.09;5012275;28;20049;-76
2023/04/14 01:22:58;;;;;;;3.75;1.80;;;;;;;1.89;55.54;100977.53;5006699;28;20036;-76
2023/04/14 01:25:52;;;;;;;4.68;1.70;;;;;;;1.96;55.25;100967.19;4988529;28;20045;-76
2023/04/14 01:28:41;;;;;;;7.72;2.33;;;;;;;2.05;54.66;100970.59;5009109;28;20044;-76
2023/04/14 01:31:10;;;;;;;8.20;1.60;;;;;;;2.09;54.85;100974.03;5003778;28;20041;-77
2023/04/14 01:33:40;;;;;;;6.38;2.08;;;;;;;2.13;54.60;100974.03;4994590;28;20033;-75
2023/04/14 01:36:12;;;;;;;7.38;2.05;;;;;;;2.11;54.75;100977.47;5014663;28;20094;-75
2023/04/14 01:38:39;;;;;;;4.55;2.33;;;;;;;2.09;54.84;100974.03;5012821;28;20029;-75
2023/04/14 01:41:08;;;;;;;16.40;2.35;;;;;;;2.20;54.73;100971.41;5015810;28;20029;-73
2023/04/14 01:43:38;;;;;;;7.97;2.15;;;;;;;2.21;54.90;100967.97;5013575;28;20398;-76
2023/04/14 01:46:08;;;;;;;3.80;1.85;;;;;;;2.20;54.81;100972.28;5031461;28;20057;-73
2023/04/14 01:48:35;;;;;;;5.90;2.22;;;;;;;2.13;54.63;100979.19;5044054;28;20116;-74
2023/04/14 01:51:02;;;;;;;9.18;2.33;;;;;;;2.13;54.43;100980.88;5021596;28;20063;-73
2023/04/14 01:53:31;;;;;;;10.95;2.08;;;;;;;2.09;54.50;100986.94;5017514;28;20028;-73
2023/04/14 01:56:00;;;;;;;9.10;2.40;;;;;;;2.10;54.68;100975.75;5012727;28;20033;-70
2023/04/14 01:58:29;;;;;;;10.00;2.05;;;;;;;2.06;54.61;100974.88;5028592;28;20017;-70
2023/04/14 02:00:57;;;;;;;8.88;2.75;;;;;;;2.04;54.86;100986.94;5028125;28;20645;-69
2023/04/14 02:03:24;;;;;;;8.02;2.67;;;;;;;1.98;54.69;100986.09;5030351;28;20148;-73
2023/04/14 02:05:52;;;;;;;11.55;2.47;;;;;;;2.00;55.00;100985.22;5045333;28;20033;-74
2023/04/14 02:08:20;;;;;;;7.47;2.80;;;;;;;1.96;54.46;100990.41;5018037;28;20084;-71
2023/04/14 02:10:47;;;;;;;6.57;3.22;;;;;;;1.89;54.60;100992.97;5013643;28;20168;-70
2023/04/14 02:13:17;;;;;;;7.70;2.78;;;;;;;1.81;54.58;100994.69;5018640;28;20044;-70
2023/04/14 02:15:43;;;;;;;6.65;3.17;;;;;;;1.83;54.63;100992.13;5014370;28;20041;-68
2023/04/14 02:18:10;;;;;;;4.50;1.65;;;;;;;1.77;54.17;100993.00;5013360;28;20056;-73
2023/04/14 02:20:43;;;;;;;4.47;2.00;;;;;;;1.68;54.14;100990.44;5011197;28;20572;-77
2023/04/14 02:23:11;;;;;;;4.03;2.15;;;;;;;1.58;54.54;100991.31;5047018;28;20533;-74
2023/04/14 02:25:42;;;;;;;6.07;3.17;;;;;;;1.51;54.75;100991.31;5018963;28;20062;-69
2023/04/14 02:28:20;;;;;;;7.03;2.85;;;;;;;1.55;54.79;100986.16;5028029;28;20033;-71
2023/04/14 02:30:50;;;;;;;7.32;2.65;;;;;;;1.54;55.02;100987.03;5026947;28;20075;-71
2023/04/14 02:33:20;;;;;;;7.82;2.63;;;;;;;1.56;55.06;100986.16;5005622;28;20044;-74
2023/04/14 02:36:17;;;;;;;6.30;2.67;;;;;;;1.47;54.92;100994.75;5028632;28;20086;-73
2023/04/14 02:38:54;;;;;;;4.60;2.25;;;;;;;1.59;54.79;100993.03;5020188;28;20892;-74
2023/04/14 02:41:24;;;;;;;9.50;2.13;;;;;;;1.49;55.30;100993.03;5028652;28;20758;-71
2023/04/14 02:43:59;;;;;;;5.80;3.25;;;;;;;1.50;55.34;100993.88;5012796;28;20282;-73
2023/04/14 02:46:28;;;;;;;6.05;3.03;;;;;;;1.49;56.07;100998.19;5013937;28;20068;-71
2023/04/14 02:48:55;;;;;;;5.93;3.30;;;;;;;1.57;55.80;100999.88;5024073;28;20257;-76
2023/04/14 02:51:23;;;;;;;6.68;3.10;;;;;;;1.40;56.76;100998.19;5026314;28;20032;-71
2023/04/14 02:53:49;;;;;;;8.52;3.53;;;;;;;1.24;57.08;101001.59;5027615;28;20413;-73
2023/04/14 02:56:26;;;;;;;4.90;2.97;;;;;;;1.50;56.02;100999.03;5007383;28;20285;-73
2023/04/14 02:58:56;;;;;;;9.70;3.75;;;;;;;1.43;55.63;101013.63;4994082;28;20037;-75
2023/04/14 03:01:25;;;;;;;10.25;3.08;;;;;;;1.38;55.74;101001.59;5009306;28;20115;-73
2023/04/14 03:03:55;;;;;;;9.88;3.60;;;;;;;1.40;56.01;100998.19;5014212;28;20083;-71
2023/04/14 03:06:22;;;;;;;6.35;3.90;;;;;;;1.51;55.60;101000.75;5010895;28;20025;-74
2023/04/14 03:08:51;;;;;;;8.90;3.17;;;;;;;1.42;55.18;100995.63;5012659;28;20032;-72
2023/04/14 03:11:20;;;;;;;10.68;3.30;;;;;;;1.21;55.32;101006.72;5024294;28;20051;-70
2023/04/14 03:13:47;;;;;;;9.55;3.03;;;;;;;1.13;55.39;101004.16;5030528;28;20619;-73
2023/04/14 03:16:14;;;;;;;9.48;2.90;;;;;;;1.09;55.29;101003.28;5028002;28;20520;-71
2023/04/14 03:18:41;;;;;;;7.43;3.25;;;;;;;1.13;55.75;100999.00;5003782;28;20506;-71
2023/04/14 03:21:07;;;;;;;7.57;3.10;;;;;;;1.12;55.49;101007.56;5016826;28;20058;-71
2023/04/14 03:23:33;;;;;;;9.35;3.78;;;;;;;1.04;55.29;100999.84;5016929;28;20029;-77
2023/04/14 03:26:04;;;;;;;5.00;3.10;;;;;;;0.96;55.11;100998.09;5016320;28;20103;-78
2023/04/14 03:28:33;;;;;;;4.10;2.85;;;;;;;0.92;55.05;100999.81;5012505;28;20025;-70
2023/04/14 03:31:03;;;;;;;6.75;3.83;;;;;;;0.81;55.64;101006.63;5034482;28;20068;-71
2023/04/14 03:33:54;;;;;;;7.07;2.55;;;;;;;0.85;55.64;101008.38;5031150;28;20033;-71
2023/04/14 03:36:22;;;;;;;9.30;3.55;;;;;;;0.92;55.32;101004.09;5032325;28;20025;-72
2023/04/14 03:38:49;;;;;;;7.15;3.55;;;;;;;0.90;55.11;101004.97;5036242;28;20024;-71
2023/04/14 03:41:20;;;;;;;4.93;2.65;;;;;;;0.93;55.39;101003.25;5028677;28;20179;-74
2023/04/14 03:43:48;;;;;;;5.82;3.15;;;;;;;0.86;55.40;100997.25;5062669;28;20087;-75
2023/04/14 03:46:15;;;;;;;7.07;3.38;;;;;;;0.87;55.03;101011.81;5038174;28;20041;-73
2023/04/14 03:48:45;;;;;;;6.40;4.15;;;;;;;0.91;54.79;101018.69;5017090;28;20055;-73
2023/04/14 03:51:15;;;;;;;6.45;3.65;;;;;;;0.79;55.02;101013.50;5028734;28;20060;-71
2023/04/14 03:53:44;;;;;;;6.38;3.45;;;;;;;0.74;55.23;101017.78;5026926;28;20033;-71
2023/04/14 03:56:14;;;;;;;9.70;3.40;;;;;;;0.64;54.98;101014.31;4997860;28;20040;-71
2023/04/14 03:58:46;;;;;;;7.45;3.53;;;;;;;0.57;55.17;101017.69;4984031;28;20124;-71
2023/04/14 04:01:13;;;;;;;7.35;3.70;;;;;;;0.50;55.48;101011.69;4973767;28;20452;-71
2023/04/14 04:03:41;;;;;;;9.68;3.75;;;;;;;0.52;55.21;101012.53;5010099;28;20033;-75
2023/04/14 04:06:07;;;;;;;7.43;5.18;;;;;;;0.51;56.13;101021.13;4999460;28;20883;-75
2023/04/14 04:08:34;;;;;;;16.70;5.65;;;;;;;0.58;56.45;101017.72;5010048;28;20029;-75
2023/04/14 04:11:06;;;;;;;11.63;5.68;;;;;;;0.62;56.74;101027.19;5026311;28;20132;-72
2023/04/14 04:13:34;;;;;;;10.57;5.53;;;;;;;0.68;56.67;101029.78;5011547;28;20071;-73
2023/04/14 04:16:01;;;;;;;12.95;5.65;;;;;;;0.77;56.66;101030.63;5033400;28;20735;-77
2023/04/14 04:18:27;;;;;;;10.93;5.65;;;;;;;0.85;56.75;101029.81;5016588;28;20025;-76
2023/04/14 04:20:56;;;;;;;6.80;4.72;;;;;;;0.81;56.80;101040.09;5016739;28;20075;-77
2023/04/14 04:23:24;;;;;;;9.82;5.97;;;;;;;0.93;56.75;101047.00;5023960;28;20040;-76
2023/04/14 04:25:51;;;;;;;10.20;4.78;;;;;;;0.92;56.86;101048.69;5028905;28;20068;-76
2023/04/14 04:28:26;;;;;;;8.48;4.68;;;;;;;0.94;57.16;101057.28;5025078;28;20033;-76
2023/04/14 04:30:53;;;;;;;11.65;5.80;;;;;;;0.97;56.71;101064.16;5030070;28;20029;-69
2023/04/14 04:33:21;;;;;;;11.65;5.65;;;;;;;0.92;56.73;101059.00;5030639;28;20037;-73
2023/04/14 04:35:47;;;;;;;7.70;5.28;;;;;;;0.96;56.18;101057.31;5034932;28;20040;-78
2023/04/14 04:38:12;;;;;;;8.15;5.00;;;;;;;0.86;56.33;101062.44;5037737;28;20032;-77
2023/04/14 04:40:41;;;;;;;6.55;4.25;;;;;;;0.78;56.08;101069.25;5018849;28;20033;-72
2023/04/14 04:43:27;;;;;;;10.48;4.57;;;;;;;0.69;56.32;101075.22;5028230;28;20049;-74
2023/04/14 04:45:57;;;;;;;7.50;5.38;;;;;;;0.80;56.46;101072.69;5030340;28;20065;-73
2023/04/14 04:48:24;;;;;;;8.40;5.63;;;;;;;0.80;56.43;101064.97;5014811;28;20132;-73
2023/04/14 04:50:50;;;;;;;9.05;5.13;;;;;;;0.79;56.49;101064.97;5012847;28;20127;-75
2023/04/14 04:53:16;;;;;;;10.82;5.03;;;;;;;0.84;56.73;101065.84;5012852;28;20224;-72
2023/04/14 04:55:42;;;;;;;13.00;5.40;;;;;;;0.83;56.68;101067.53;5014483;28;20043;-70
2023/04/14 04:58:08;;;;;;;9.38;5.80;;;;;;;0.96;56.99;101068.44;5034587;28;20033;-77
2023/04/14 05:00:33;;;;;;;9.15;5.18;;;;;;;1.08;56.69;101065.94;5032869;28;20112;-72
2023/04/14 05:02:59;;;;;;;13.55;6.25;;;;;;;1.29;56.74;101069.41;5032548;28;20841;-71
2023/04/14 05:05:24;;;;;;;16.52;6.47;;;;;;;1.35;56.33;101061.69;5027929;28;20123;-70
2023/04/14 05:07:50;;;;;;;11.75;6.50;;;;;;;1.37;56.66;101064.25;5029819;28;20040;-70
2023/04/14 05:10:16;;;;;;;10.52;6.68;;;;;;;1.43;56.53;101065.16;5039901;28;20189;-70
2023/04/14 05:12:41;;;;;;;11.57;5.88;;;;;;;1.63;56.18;101061.72;5029331;28;20456;-71
2023/04/14 05:15:09;;;;;;;12.63;6.35;;;;;;;1.74;56.60;101067.75;5030086;28;20060;-72
2023/04/14 05:17:36;;;;;;;11.98;5.90;;;;;;;1.91;56.02;101068.59;5027326;28;20045;-71
2023/04/14 05:20:04;;;;;;;13.40;6.43;;;;;;;2.03;55.71;101061.69;5030308;28;20075;-72
2023/04/14 05:22:31;;;;;;;10.57;6.85;;;;;;;2.00;55.82;101072.00;5028479;28;20043;-71
2023/04/14 05:24:56;;;;;;;12.82;7.53;;;;;;;2.04;55.91;101064.28;5010114;28;20037;-74
2023/04/14 05:27:22;;;;;;;14.05;7.55;;;;;;;2.30;56.26;101071.94;4991123;28;20537;-72
2023/04/14 05:29:47;;;;;;;16.60;8.05;;;;;;;3.24;55.65;101070.69;5003135;28;20132;-73
2023/04/14 05:32:15;;;;;;;9.70;6.22;;;;;;;4.95;52.16;101064.78;5030808;28;20098;-71
2023/04/14 05:34:41;;;;;;;11.45;6.07;;;;;;;6.24;48.37;101063.56;5029357;28;20127;-71
2023/04/14 05:37:06;;;;;;;9.80;6.90;;;;;;;7.08;47.21;101067.91;5030572;28;20112;-71
2023/04/14 05:39:32;;;;;;;12.18;6.78;;;;;;;7.70;45.42;101068.22;5030579;28;20059;-74
2023/04/14 05:41:58;;;;;;;7.25;4.90;;;;;;;8.23;42.89;101061.69;5025749;28;20525;-71
2023/04/14 05:44:24;;;;;;;11.00;5.05;;;;;;;8.45;41.66;101062.78;5031062;28;20033;-81
2023/04/14 05:46:50;;;;;;;7.97;5.22;;;;;;;8.59;40.63;101066.75;5029446;28;20740;-71
2023/04/14 05:49:15;;;;;;;5.32;4.15;;;;;;;8.84;40.26;101059.94;5030910;28;20048;-71
2023/04/14 05:51:41;;;;;;;6.53;4.68;;;;;;;8.83;39.11;101062.59;5029140;28;20114;-70
2023/04/14 05:54:06;;;;;;;6.95;4.53;;;;;;;9.49;38.80;101057.94;5009953;28;20041;-68
2023/04/14 05:56:32;;;;;;;6.93;4.38;;;;;;;9.84;36.75;101058.59;5008581;28;20044;-69
2023/04/14 05:58:58;;;;;;;6.32;4.00;;;;;;;9.91;38.94;101054.84;5012783;28;20048;-68
2023/04/14 06:01:24;;;;;;;8.02;4.15;;;;;;;10.75;37.35;101054.41;5028441;28;20025;-68
2023/04/14 06:03:50;;;;;;;5.55;4.07;;;;;;;11.50;36.45;101052.41;5029392;28;20722;-70
2023/04/14 06:06:16;;;;;;;9.38;4.30;;;;;;;11.33;34.46;101056.56;5030597;28;20409;-71
2023/04/14 06:08:41;;;;;;;5.22;4.60;;;;;;;11.37;34.87;101059.88;5018445;28;20037;-71
2023/04/14 06:11:07;;;;;;;10.07;4.78;;;;;;;11.24;34.47;101068.25;5014041;28;20112;-69
2023/04/14 06:13:33;;;;;;;8.73;4.15;;;;;;;11.64;33.73;101060.50;5024633;28;20061;-70
2023/04/14 06:15:59;;;;;;;6.70;4.00;;;;;;;11.55;33.55;101074.00;4990479;28;20398;-73
2023/04/14 06:18:25;;;;;;;4.05;3.65;;;;;;;11.95;34.03;101059.25;5006944;28;20498;-72
2023/04/14 06:20:50;;;;;;;7.30;4.32;;;;;;;12.82;33.23;101059.78;4999755;28;20052;-73
2023/04/14 06:23:16;;;;;;;5.32;3.38;;;;;;;13.18;30.11;101054.56;5002294;28;20509;-73
2023/04/14 06:25:42;;;;;;;5.07;3.13;;;;;;;13.38;30.93;101058.84;5004016;28;20107;-69
2023/04/14 06:28:07;;;;;;;6.70;3.67;;;;;;;13.50;30.29;101057.41;5006148;28;20093;-73
2023/04/14 06:30:33;;;;;;;7.93;3.45;;;;;;;13.39;29.80;101055.31;5019194;28;20494;-75
2023/04/14 06:33:03;;;;;;;4.63;3.28;;;;;;;13.21;31.52;101049.19;5030121;28;20045;-74
2023/04/14 06:35:30;;;;;;;5.72;3.78;;;;;;;13.87;29.33;101053.78;5020554;28;20044;-75
2023/04/14 06:37:56;;;;;;;5.65;4.00;;;;;;;13.71;30.30;101052.88;5029318;28;20024;-72
2023/04/14 06:40:22;;;;;;;5.78;3.38;;;;;;;13.93;30.16;101053.50;5015045;28;20034;-71
2023/04/14 06:42:47;;;;;;;4.40;2.80;;;;;;;14.35;29.89;101054.81;5007582;28;20029;-71
2023/04/14 06:45:13;;;;;;;3.75;3.13;;;;;;;14.24;29.23;101054.53;5010573;28;20037;-74
2023/04/14 06:47:39;;;;;;;6.38;3.50;;;;;;;14.15;29.23;101055.00;5006027;28;20064;-75
2023/04/14 06:50:05;;;;;;;7.13;3.08;;;;;;;14.42;28.87;101065.88;5011636;28;20042;-73
2023/04/14 06:52:30;;;;;;;5.82;3.17;;;;;;;14.18;29.58;101062.72;5005474;28;20506;-74
2023/04/14 06:54:56;;;;;;;4.85;3.00;;;;;;;14.53;28.23;101068.78;4993088;28;20060;-73
2023/04/14 06:57:22;;;;;;;6.30;4.22;;;;;;;14.96;28.44;101068.22;5010958;28;20033;-71
2023/04/14 06:59:47;;;;;;;7.15;3.10;;;;;;;15.23;28.33;101071.13;5007617;28;20030;-72
2023/04/14 07:02:13;;;;;;;3.25;2.45;;;;;;;15.53;26.92;101073.81;5015209;28;20714;-71
2023/04/14 07:04:38;;;;;;;4.13;3.00;;;;;;;15.80;26.83;101067.84;5004393;28;20045;-71
2023/04/14 07:07:04;;;;;;;8.60;4.00;;;;;;;16.31;27.21;101072.72;5013263;28;20039;-73
2023/04/14 07:09:30;;;;;;;5.65;3.35;;;;;;;16.02;26.59;101069.22;5013918;28;20034;-72
2023/04/14 07:11:56;;;;;;;6.60;2.70;;;;;;;15.86;28.66;101072.75;5001336;28;21005;-73
2023/04/14 07:14:22;;;;;;;5.90;2.20;;;;;;;15.92;26.68;101072.38;5003252;28;20034;-73
2023/04/14 07:16:49;;;;;;;5.05;2.30;;;;;;;15.83;28.06;101067.66;4986151;28;20035;-72
2023/04/14 07:19:15;;;;;;;5.55;2.55;;;;;;;16.27;26.85;101061.53;5007751;28;20048;-77
2023/04/14 07:21:40;;;;;;;3.58;2.40;;;;;;;16.42;27.53;101057.97;5004237;28;20033;-74
2023/04/14 07:24:06;;;;;;;4.22;1.75;;;;;;;17.92;26.18;101048.34;5003025;28;20058;-72
2023/04/14 07:26:31;;;;;;;4.75;1.88;;;;;;;18.59;24.19;101053.38;5000412;28;20065;-74
2023/04/14 07:28:57;;;;;;;3.45;1.92;;;;;;;20.04;22.55;101044.41;4988902;28;20514;-72
2023/04/14 07:31:22;;;;;;;5.07;1.58;;;;;;;20.45;21.59;101032.34;5006102;28;20082;-75
2023/04/14 07:33:48;;;;;;;3.83;2.40;;;;;;;21.29;20.77;101037.97;5000279;28;20593;-74
2023/04/14 07:36:15;;;;;;;9.73;2.17;;;;;;;21.81;19.85;101037.22;5008881;28;20269;-74
2023/04/14 07:38:42;;;;;;;4.30;1.73;;;;;;;22.06;19.59;101030.63;5003900;28;20474;-72
2023/04/14 07:41:08;;;;;;;3.35;1.45;;;;;;;21.54;19.75;101042.09;5008722;28;20095;-72
2023/04/14 07:43:34;;;;;;;5.13;2.08;;;;;;;21.39;20.63;101038.03;4999063;28;20042;-71
2023/04/14 07:46:04;;;;;;;3.80;2.20;;;;;;;20.93;20.69;101031.19;5002511;28;20041;-72
2023/04/14 07:48:31;;;;;;;2.90;1.98;;;;;;;21.29;20.77;101037.13;4999644;28;20048;-72
2023/04/14 07:50:57;;;;;;;5.90;2.55;;;;;;;22.18;19.78;101033.09;5004549;28;20045;-71
2023/04/14 07:53:23;;;;;;;2.33;0.98;;;;;;;22.03;18.65;101039.72;5002845;28;20029;-71
2023/04/14 07:55:49;;;;;;;4.05;1.45;;;;;;;22.18;18.62;101040.22;4996484;28;20861;-72
2023/04/14 07:58:15;;;;;;;2.70;1.30;;;;;;;20.73;20.45;101040.78;5003567;28;20053;-71
2023/04/14 08:00:41;;;;;;;3.72;1.70;;;;;;;20.33;20.89;101039.50;4999197;28;20458;-72
2023/04/14 08:03:08;;;;;;;3.78;1.00;;;;;;;20.25;21.43;101046.34;4997769;28;20099;-72
2023/04/14 08:05:34;;;;;;;2.28;1.27;;;;;;;20.67;21.04;101044.75;4999276;28;20053;-72
2023/04/14 08:07:59;;;;;;;6.55;1.35;;;;;;;20.73;19.47;101043.44;5005625;28;20041;-70
2023/04/14 08:10:25;;;;;;;3.75;1.45;;;;;;;19.98;21.08;101049.34;4991510;28;20131;-74
2023/04/14 08:12:51;;;;;;;3.35;1.45;;;;;;;20.27;20.78;101049.75;4995429;28;20814;-72
2023/04/14 08:15:17;;;;;;;4.70;1.33;;;;;;;20.16;20.22;101055.84;5008363;28;20605;-73
2023/04/14 08:17:43;;;;;;;6.03;0.88;;;;;;;20.04;20.82;101055.00;5008280;28;20036;-74
2023/04/14 08:20:09;;;;;;;5.45;1.50;;;;;;;20.43;19.94;101058.16;4983801;28;20057;-73
2023/04/14 08:22:35;;;;;;;5.25;1.27;;;;;;;20.60;20.24;101058.66;5000508;28;20034;-74
2023/04/14 08:25:00;;;;;;;4.78;1.15;;;;;;;20.22;21.22;101047.44;5020551;28;20051;-74
2023/04/14 08:27:26;;;;;;;3.60;1.10;;;;;;;19.94;20.72;101048.72;4998112;28;20041;-72
2023/04/14 08:29:51;;;;;;;4.75;1.15;;;;;;;20.21;20.57;101050.22;4995630;28;21463;-74
2023/04/14 08:32:17;;;;;;;4.90;1.30;;;;;;;20.63;20.36;101045.13;5013988;28;20653;-73
2023/04/14 08:34:43;;;;;;;6.03;1.38;;;;;;;20.78;20.68;101051.88;5024175;28;20090;-73
2023/04/14 08:37:08;;;;;;;4.20;1.00;;;;;;;20.17;20.86;101054.03;5027448;28;20035;-72
2023/04/14 08:39:34;;;;;;;3.63;1.25;;;;;;;20.39;20.52;101048.75;5003815;28;21015;-70
2023/04/14 08:42:00;;;;;;;3.22;1.23;;;;;;;20.31;20.34;101053.84;5018620;28;20037;-71
2023/04/14 08:44:25;;;;;;;7.53;1.35;;;;;;;19.48;20.78;101057.50;5022718;28;20052;-69
2023/04/14 08:46:54;;;;;;;2.95;0.75;;;;;;;18.17;22.74;101056.25;5032425;28;20032;-71
2023/04/14 08:49:43;;;;;;;2.75;0.90;;;;;;;17.47;23.41;101059.22;5026969;28;20131;-72
2023/04/14 08:52:12;;;;;;;5.35;1.20;;;;;;;17.15;23.80;101058.69;5024716;28;20786;-72
2023/04/14 08:54:41;;;;;;;3.63;1.25;;;;;;;16.99;24.02;101058.84;4996328;28;20137;-71
2023/04/14 08:57:12;;;;;;;4.60;0.85;;;;;;;16.49;24.60;101061.06;5006650;28;20035;-71
2023/04/14 08:59:38;;;;;;;5.72;1.15;;;;;;;16.70;23.81;101053.59;4998292;28;20039;-70
2023/04/14 09:02:05;;;;;;;3.85;0.75;;;;;;;16.68;24.54;101055.47;5005989;28;20047;-71
2023/04/14 09:04:33;;;;;;;2.60;0.50;;;;;;;16.77;24.50;101062.84;5016661;28;20033;-72
2023/04/14 09:07:01;;;;;;;3.10;0.70;;;;;;;15.59;24.81;101064.69;5004409;28;20056;-71
2023/04/14 09:09:27;;;;;;;6.22;1.27;;;;;;;14.65;26.89;101064.63;5004027;28;20145;-72
2023/04/14 09:11:53;;;;;;;11.02;1.40;;;;;;;14.15;27.95;101068.16;5002074;28;20052;-70
2023/04/14 09:14:19;;;;;;;5.15;1.02;;;;;;;14.23;27.61;101062.50;5009316;28;20373;-72
2023/04/14 09:16:47;;;;;;;4.43;1.33;;;;;;;14.06;28.43;101058.97;5016772;28;20060;-71
2023/04/14 09:19:15;;;;;;;2.67;1.15;;;;;;;14.08;27.87;101056.28;5003321;28;20036;-72
2023/04/14 09:21:41;;;;;;;5.90;1.25;;;;;;;13.79;27.63;101060.41;5031833;28;20033;-72
2023/04/14 09:24:06;;;;;;;4.65;0.85;;;;;;;14.07;28.90;101058.03;4997438;28;20527;-71
2023/04/14 09:26:32;;;;;;;3.13;0.90;;;;;;;13.56;29.32;101059.72;5021032;28;20037;-72
2023/04/14 09:28:58;;;;;;;7.85;1.35;;;;;;;13.70;27.87;101054.66;4994504;28;21087;-71
2023/04/14 09:31:23;;;;;;;5.80;1.50;;;;;;;14.20;28.54;101066.13;5018177;28;20085;-71
2023/04/14 09:33:49;;;;;;;3.17;1.08;;;;;;;14.26;28.23;101055.31;5001921;28;20623;-72
2023/04/14 09:36:20;;;;;;;7.43;1.30;;;;;;;14.34;28.72;101047.88;5026519;28;20025;-71
2023/04/14 09:38:47;;;;;;;7.10;1.42;;;;;;;14.29;28.70;101057.75;5019748;28;20029;-73
2023/04/14 09:41:17;;;;;;;6.10;1.40;;;;;;;14.37;28.43;101052.09;5025917;28;20213;-73
2023/04/14 09:43:44;;;;;;;5.30;1.15;;;;;;;14.88;28.38;101052.88;5016856;28;20124;-73
2023/04/14 09:46:10;;;;;;;6.22;2.20;;;;;;;14.92;27.20;101049.09;5024034;28;20453;-73
2023/04/14 09:48:55;;;;;;;5.18;1.13;;;;;;;14.72;28.36;101054.63;5017841;28;20033;-73
2023/04/14 09:51:32;;;;;;;4.72;1.33;;;;;;;15.15;27.62;101054.91;5020623;28;20033;-74
2023/04/14 09:54:02;;;;;;;7.10;1.88;;;;;;;14.81;28.62;101055.91;5003422;28;20061;-73
2023/04/14 09:56:27;;;;;;;3.63;1.48;;;;;;;15.18;27.38;101052.06;5020788;28;20387;-74
2023/04/14 09:58:57;;;;;;;8.35;1.33;;;;;;;15.44;27.39;101055.91;5018828;28;20091;-73
2023/04/14 10:01:29;;;;;;;6.55;1.40;;;;;;;14.74;26.66;101061.50;5038627;28;20044;-74
2023/04/14 10:03:54;;;;;;;3.83;1.25;;;;;;;14.69;27.45;101055.66;5022859;28;20032;-74
2023/04/14 10:06:22;;;;;;;6.13;1.80;;;;;;;15.27;28.12;101056.00;5024453;28;20153;-73
2023/04/14 10:08:50;;;;;;;4.72;0.90;;;;;;;15.25;25.82;101055.25;5022788;28;20086;-74
2023/04/14 10:11:31;;;;;;;5.13;1.90;;;;;;;15.44;26.10;101055.91;5035306;28;20681;-72
2023/04/14 10:14:01;;;;;;;5.70;1.85;;;;;;;15.52;27.28;101048.38;5024946;28;20041;-73
2023/04/14 10:16:26;;;;;;;7.32;2.17;;;;;;;15.21;26.61;101048.41;5025496;28;20445;-72
2023/04/14 10:18:53;;;;;;;5.55;0.75;;;;;;;14.79;25.57;101049.88;5022906;28;20098;-73
2023/04/14 10:21:21;;;;;;;5.72;1.02;;;;;;;15.40;24.63;101043.84;5016602;28;20115;-73
2023/04/14 10:23:47;;;;;;;6.72;1.30;;;;;;;14.88;25.30;101050.25;5014376;28;20033;-73
2023/04/14 10:26:14;;;;;;;7.53;1.35;;;;;;;14.98;25.87;101055.84;5023794;28;20036;-74
2023/04/14 10:28:45;;;;;;;4.22;1.42;;;;;;;14.53;26.76;101046.91;5023144;28;20048;-74
2023/04/14 10:31:18;;;;;;;8.25;2.25;;;;;;;15.38;25.87;101041.28;5023432;28;20025;-72
2023/04/14 10:33:45;;;;;;;4.65;1.35;;;;;;;15.73;25.94;101041.03;5022100;28;20037;-73
2023/04/14 10:36:11;;;;;;;5.40;1.98;;;;;;;15.74;25.23;101037.44;5024007;28;20513;-73
2023/04/14 10:38:42;;;;;;;6.13;1.52;;;;;;;15.79;24.71;101029.25;5022371;28;20531;-73
2023/04/14 10:41:09;;;;;;;2.47;1.30;;;;;;;15.39;25.21;101031.59;5024116;28;20425;-73
2023/04/14 10:43:36;;;;;;;6.03;1.80;;;;;;;15.27;25.07;101032.31;5006906;28;22211;-74
2023/04/14 10:46:02;;;;;;;6.97;2.13;;;;;;;15.20;26.79;101036.22;5019775;28;20064;-73
2023/04/14 10:48:36;;;;;;;6.78;1.80;;;;;;;15.05;26.63;101030.84;5024682;28;20052;-73
2023/04/14 10:51:04;;;;;;;6.47;1.65;;;;;;;14.67;27.03;101031.22;5023737;28;20045;-73
2023/04/14 10:53:43;;;;;;;4.68;1.98;;;;;;;14.72;27.90;101037.09;5038482;28;20086;-73
2023/04/14 10:56:10;;;;;;;7.93;2.20;;;;;;;15.00;28.18;101022.38;5026526;28;20601;-72
2023/04/14 10:58:36;;;;;;;4.47;1.35;;;;;;;15.31;27.21;101031.19;5023717;28;20056;-73
2023/04/14 11:01:23;;;;;;;6.45;1.48;;;;;;;15.53;26.26;101026.38;5008847;28;20082;-73
2023/04/14 11:03:49;;;;;;;4.75;1.58;;;;;;;14.99;25.87;101028.56;5020797;28;20581;-73
2023/04/14 11:06:46;;;;;;;4.97;1.83;;;;;;;15.57;25.79;101022.63;5011569;28;20037;-73
2023/04/14 11:09:25;;;;;;;6.95;1.65;;;;;;;17.02;24.51;101025.16;5011527;28;20446;-73
2023/04/14 11:11:51;;;;;;;4.80;1.90;;;;;;;16.44;25.84;101028.00;5023868;28;20159;-73
2023/04/14 11:14:25;;;;;;;5.72;1.80;;;;;;;15.36;26.73;101021.25;5012194;28;20041;-74
2023/04/14 11:16:50;;;;;;;3.53;1.15;;;;;;;14.54;27.73;101019.66;5025728;28;20037;-74
2023/04/14 11:19:16;;;;;;;4.90;1.27;;;;;;;15.03;28.30;101009.03;5009230;28;20039;-72
2023/04/14 11:21:49;;;;;;;5.78;1.52;;;;;;;14.61;28.31;101018.38;5019391;28;20051;-73
2023/04/14 11:24:15;;;;;;;4.72;1.23;;;;;;;15.07;27.29;101010.56;5025957;28;20103;-73
2023/04/14 11:26:43;;;;;;;4.15;1.15;;;;;;;15.58;26.24;101011.16;5029060;28;20037;-74
2023/04/14 11:29:08;;;;;;;4.80;1.13;;;;;;;16.09;25.63;101004.66;5024757;28;20033;-74
2023/04/14 11:31:34;;;;;;;3.88;1.00;;;;;;;16.60;25.00;101008.47;5021458;28;20048;-74
2023/04/14 11:34:04;;;;;;;5.85;1.77;;;;;;;17.20;23.97;101003.75;5027296;28;20045;-73